createdAt,value
2018-11-28T00:06:22.992Z,97950.41
2018-11-28T00:16:41.582Z,97952.34
2018-11-28T00:27:00.122Z,97966.44
2018-11-28T00:37:18.842Z,97971.32
2018-11-28T00:47:37.555Z,97987.09
2018-11-28T00:57:56.534Z,98002.53
2018-11-28T01:08:15.241Z,98010.52
2018-11-28T01:18:34.018Z,98001.83
2018-11-28T01:28:52.495Z,98036.33
2018-11-28T01:39:11.162Z,98028.50
2018-11-28T01:49:31.546Z,98040.34
2018-11-28T01:59:50.117Z,98040.42
2018-11-28T02:10:12.438Z,98025.28
2018-11-28T02:20:31.543Z,98035.52
2018-11-28T02:30:50.106Z,98059.17
2018-11-28T02:41:08.860Z,98059.17
2018-11-28T02:51:27.564Z,98070.23
2018-11-28T03:01:46.377Z,98075.58
2018-11-28T03:12:05.055Z,98083.41
2018-11-28T03:22:23.722Z,98083.41
2018-11-28T03:32:42.028Z,98100.77
2018-11-28T03:43:00.623Z,98089.97
2018-11-28T03:53:19.432Z,98102.23
2018-11-28T04:03:38.464Z,98117.29
2018-11-28T04:13:57.243Z,98126.55
2018-11-28T04:24:15.982Z,98145.39
2018-11-28T04:34:34.675Z,98145.39
2018-11-28T04:44:53.362Z,98150.70
2018-11-28T04:55:21.114Z,98149.09
2018-11-28T05:05:42.602Z,98153.91
2018-11-28T05:16:01.750Z,98172.63
2018-11-28T05:26:20.371Z,98163.87
2018-11-28T05:36:39.059Z,98163.87
2018-11-28T05:47:03.744Z,98190.66
2018-11-28T05:57:22.225Z,98202.37
2018-11-28T06:07:40.911Z,98209.09
2018-11-28T06:17:59.723Z,98204.00
2018-11-28T06:28:18.403Z,98217.00
2018-11-28T06:38:37.085Z,98227.13
2018-11-28T06:49:06.583Z,98227.13
2018-11-28T06:59:25.949Z,98250.09
2018-11-28T07:09:49.778Z,98268.52
2018-11-28T07:20:12.207Z,98274.23
2018-11-28T07:30:30.798Z,98334.54
2018-11-28T07:40:49.546Z,98295.97
2018-11-28T07:51:08.163Z,98312.02
2018-11-28T08:01:26.791Z,98301.41
2018-11-28T08:11:45.342Z,98301.41
2018-11-28T08:22:03.994Z,98306.58
2018-11-28T08:32:23.103Z,98306.58
2018-11-28T08:42:41.795Z,98310.30
2018-11-28T08:53:00.830Z,98319.84
2018-11-28T09:03:19.134Z,98317.63
2018-11-28T10:07:59.966Z,98324.55
2018-11-28T10:18:18.885Z,98321.95
2018-11-28T10:28:37.477Z,98316.47
2018-11-28T10:38:56.759Z,98312.88
2018-11-28T10:49:17.495Z,98302.14
2018-11-28T10:59:36.345Z,98288.79
2018-11-28T11:10:13.714Z,98292.67
2018-11-28T11:20:32.399Z,98289.98
2018-11-28T11:30:51.125Z,98298.55
2018-11-28T12:01:42.864Z,98283.42
2018-11-28T12:12:11.305Z,98282.08
2018-11-28T12:22:35.075Z,98277.08
2018-11-28T12:32:54.912Z,98278.45
2018-11-28T12:43:15.299Z,98272.59
2018-11-28T12:53:37.500Z,98279.95
2018-11-28T13:04:08.821Z,98287.07
2018-11-28T13:14:28.730Z,98270.73
2018-11-28T13:24:47.777Z,98277.97
2018-11-28T13:35:06.813Z,98275.88
2018-11-28T13:45:30.536Z,98284.45
2018-11-28T14:06:18.088Z,98285.75
2018-11-28T14:16:39.780Z,98293.34
2018-11-28T14:26:59.067Z,98308.25
2018-11-28T14:37:20.556Z,98322.66
2018-11-28T14:47:44.110Z,98323.52
2018-11-28T14:58:07.101Z,98332.85
2018-11-28T15:08:27.644Z,98330.38
2018-11-28T15:18:47.432Z,98345.02
2018-11-28T15:29:07.816Z,98361.42
2018-11-28T15:39:27.205Z,98370.83
2018-11-28T15:49:46.828Z,98370.83
2018-11-28T16:00:25.342Z,98373.34
2018-11-28T16:10:44.936Z,98383.91
2018-11-28T16:21:04.588Z,98383.91
2018-11-28T16:31:25.551Z,98385.68
2018-11-28T16:41:44.766Z,98407.26
2018-11-28T16:52:06.211Z,98404.20
2018-11-28T17:02:25.581Z,98408.41
2018-11-28T17:12:46.055Z,98417.80
2018-11-28T17:23:06.951Z,98425.30
2018-11-28T17:33:28.845Z,98432.39
2018-11-28T17:43:51.515Z,98450.17
2018-11-28T17:54:10.899Z,98449.56
2018-11-28T18:04:31.211Z,98451.19
2018-11-28T18:14:52.704Z,98458.56
2018-11-28T18:25:13.703Z,98462.11
2018-11-28T18:35:34.065Z,98453.98
2018-11-28T18:45:56.435Z,98460.30
2018-11-28T18:56:17.039Z,98465.27
2018-11-28T19:06:37.442Z,98467.53
2018-11-28T19:17:00.986Z,98463.98
2018-11-28T19:27:24.183Z,98470.80
2018-11-28T19:37:46.666Z,98473.38
2018-11-28T19:48:07.775Z,98485.55
2018-11-28T19:58:29.883Z,98474.26
2018-11-28T20:08:54.418Z,98477.70
2018-11-28T20:19:24.385Z,98490.98
2018-11-28T20:29:45.235Z,98482.92
2018-11-28T20:40:15.398Z,98478.52
2018-11-28T20:50:42.720Z,98493.28
2018-11-28T21:01:02.671Z,98497.95
2018-11-28T21:11:26.455Z,98484.55
2018-11-28T21:21:48.493Z,98478.44
2018-11-28T21:32:09.404Z,98485.83
2018-11-28T21:42:29.489Z,98479.85
2018-11-28T21:52:49.714Z,98465.96
2018-11-28T22:03:09.142Z,98480.03
2018-11-28T22:13:29.473Z,98478.52
2018-11-28T22:23:48.157Z,98484.63
2018-11-28T22:34:07.653Z,98479.95
2018-11-28T22:44:27.118Z,98469.26
2018-11-28T22:54:46.579Z,98480.40
2018-11-28T23:05:06.523Z,98478.19
2018-11-28T23:15:25.761Z,98477.03
2018-11-28T23:25:44.790Z,98475.08
2018-11-28T23:36:04.045Z,98465.36
2018-11-28T23:46:23.111Z,98455.92
2018-11-28T23:56:42.593Z,98451.21
